createdAt,value
2023-12-08T00:00:49.539Z,101091.69
2023-12-08T00:03:16.724Z,101079.50
2023-12-08T00:05:43.331Z,101082.88
2023-12-08T00:08:11.992Z,101073.28
2023-12-08T00:10:38.507Z,101063.75
2023-12-08T00:13:05.060Z,101055.03
2023-12-08T00:15:32.101Z,101054.97
2023-12-08T00:17:58.709Z,101053.22
2023-12-08T00:20:25.307Z,101048.88
2023-12-08T00:22:51.897Z,101041.03
2023-12-08T00:25:18.528Z,101042.75
2023-12-08T00:27:45.116Z,101038.41
2023-12-08T00:30:13.363Z,101046.28
2023-12-08T00:32:40.180Z,101052.31
2023-12-08T00:35:07.672Z,101033.34
2023-12-08T00:37:34.309Z,101051.41
2023-12-08T00:40:01.163Z,101034.84
2023-12-08T00:42:28.970Z,101022.63
2023-12-08T00:44:55.731Z,101011.22
2023-12-08T00:47:22.363Z,100999.06
2023-12-08T00:49:49.115Z,100988.53
2023-12-08T00:52:15.795Z,100985.06
2023-12-08T00:54:42.356Z,100987.69
2023-12-08T00:57:09.560Z,100980.75
2023-12-08T00:59:36.188Z,100964.97
2023-12-08T01:02:03.056Z,100962.31
2023-12-08T01:04:29.828Z,100958.00
2023-12-08T01:06:56.336Z,100965.84
2023-12-08T01:09:23.076Z,100972.69
2023-12-08T01:11:50.138Z,100971.88
2023-12-08T01:14:16.755Z,100975.34
2023-12-08T01:16:43.731Z,100986.66
2023-12-08T01:19:12.197Z,100993.66
2023-12-08T01:21:39.911Z,100991.00
2023-12-08T01:24:07.399Z,100981.44
2023-12-08T01:26:34.224Z,100971.88
2023-12-08T01:29:00.962Z,100964.84
2023-12-08T01:31:27.479Z,100965.59
2023-12-08T01:33:54.396Z,100962.97
2023-12-08T01:36:39.620Z,100968.16
2023-12-08T01:39:07.707Z,100966.38
2023-12-08T01:41:34.605Z,100969.00
2023-12-08T01:44:01.248Z,100969.94
2023-12-08T01:46:31.085Z,100975.97
2023-12-08T01:48:59.374Z,100978.63
2023-12-08T01:51:26.726Z,100980.34
2023-12-08T01:53:53.357Z,100971.56
2023-12-08T01:56:20.181Z,100973.16
2023-12-08T01:58:46.978Z,100978.41
2023-12-08T02:01:14.379Z,100976.63
2023-12-08T02:03:41.851Z,100975.75
2023-12-08T02:06:10.895Z,100986.16
2023-12-08T02:08:37.884Z,100993.09
2023-12-08T02:11:04.705Z,100975.69
2023-12-08T02:13:31.683Z,100974.75
2023-12-08T02:16:05.384Z,100966.88
2023-12-08T02:18:34.277Z,100958.09
2023-12-08T02:21:02.729Z,100955.47
2023-12-08T02:23:29.410Z,100946.66
2023-12-08T02:25:56.226Z,100944.09
2023-12-08T02:28:22.844Z,100945.78
2023-12-08T02:30:51.756Z,100934.47
2023-12-08T02:33:30.882Z,100929.97
2023-12-08T02:35:58.773Z,100917.88
2023-12-08T02:38:26.094Z,100914.38
2023-12-08T02:40:52.916Z,100906.59
2023-12-08T02:43:19.557Z,100899.59
2023-12-08T02:45:46.082Z,100902.22
2023-12-08T02:48:12.665Z,100898.81
2023-12-08T02:50:39.330Z,100888.38
2023-12-08T02:53:05.880Z,100882.41
2023-12-08T02:55:32.780Z,100887.63
2023-12-08T02:57:59.390Z,100878.09
2023-12-08T03:00:25.923Z,100881.63
2023-12-08T03:02:52.504Z,100867.81
2023-12-08T03:05:19.150Z,100865.25
2023-12-08T03:07:45.914Z,100866.16
2023-12-08T03:10:12.629Z,100868.84
2023-12-08T03:12:39.211Z,100848.81
2023-12-08T03:15:06.975Z,100858.38
2023-12-08T03:17:33.609Z,100857.53
2023-12-08T03:20:00.384Z,100850.63
2023-12-08T03:22:27.944Z,100849.00
2023-12-08T03:24:54.507Z,100836.69
2023-12-08T03:27:21.654Z,100846.31
2023-12-08T03:29:48.456Z,100841.94
2023-12-08T03:32:15.018Z,100840.25
2023-12-08T03:34:41.605Z,100847.16
2023-12-08T03:37:08.166Z,100825.63
2023-12-08T03:39:34.682Z,100831.59
2023-12-08T03:42:01.276Z,100829.88
2023-12-08T03:44:27.905Z,100831.72
2023-12-08T03:46:54.454Z,100831.72
2023-12-08T03:49:21.156Z,100827.44
2023-12-08T03:51:47.719Z,100825.69
2023-12-08T03:54:14.402Z,100823.06
2023-12-08T03:56:41.047Z,100839.56
2023-12-08T03:59:07.593Z,100832.63
2023-12-08T04:01:34.117Z,100828.44
2023-12-08T04:04:00.764Z,100827.44
2023-12-08T04:06:27.731Z,100822.31
2023-12-08T04:08:54.333Z,100837.88
2023-12-08T04:11:20.899Z,100830.13
2023-12-08T04:13:47.420Z,100830.00
2023-12-08T04:16:15.427Z,100833.47
2023-12-08T04:18:42.088Z,100831.72
2023-12-08T04:21:08.838Z,100842.97
2023-12-08T04:23:35.938Z,100843.91
2023-12-08T04:26:02.438Z,100846.56
2023-12-08T04:28:28.987Z,100844.84
2023-12-08T04:30:55.539Z,100850.94
2023-12-08T04:33:22.260Z,100851.78
2023-12-08T04:35:49.000Z,100848.34
2023-12-08T04:38:15.632Z,100846.56
2023-12-08T04:40:42.179Z,100843.16
2023-12-08T04:43:08.721Z,100845.72
2023-12-08T04:45:35.275Z,100843.91
2023-12-08T04:48:02.423Z,100837.88
2023-12-08T04:50:29.302Z,100838.75
2023-12-08T04:52:55.937Z,100849.22
2023-12-08T04:55:22.549Z,100846.63
2023-12-08T04:57:49.195Z,100836.16
2023-12-08T05:00:16.189Z,100831.72
2023-12-08T05:02:42.827Z,100836.94
2023-12-08T05:05:09.433Z,100835.13
2023-12-08T05:07:36.003Z,100835.13
2023-12-08T05:10:02.559Z,100832.63
2023-12-08T05:12:29.165Z,100846.38
2023-12-08T05:14:55.733Z,100837.63
2023-12-08T05:17:22.321Z,100814.19
2023-12-08T05:19:49.148Z,100810.66
2023-12-08T05:22:15.808Z,100810.66
2023-12-08T05:24:42.376Z,100821.00
2023-12-08T05:27:09.440Z,100822.72
2023-12-08T05:29:36.425Z,100817.50
2023-12-08T05:32:03.302Z,100812.25
2023-12-08T05:34:30.492Z,100812.16
2023-12-08T05:36:57.488Z,100801.78
2023-12-08T05:39:24.039Z,100808.66
2023-12-08T05:41:50.642Z,100801.78
2023-12-08T05:44:17.406Z,100813.81
2023-12-08T05:46:44.025Z,100819.03
2023-12-08T05:49:10.881Z,100808.56
2023-12-08T05:51:37.650Z,100806.75
2023-12-08T05:54:04.450Z,100814.53
2023-12-08T05:56:31.060Z,100811.13
2023-12-08T05:58:57.567Z,100806.84
2023-12-08T06:01:24.232Z,100817.94
2023-12-08T06:03:50.911Z,100815.38
2023-12-08T06:06:17.671Z,100818.78
2023-12-08T06:08:44.422Z,100822.28
2023-12-08T06:11:11.025Z,100831.84
2023-12-08T06:13:37.624Z,100821.31
2023-12-08T06:16:05.269Z,100828.31
2023-12-08T06:18:32.157Z,100831.78
2023-12-08T06:20:59.579Z,100829.09
2023-12-08T06:23:26.495Z,100837.81
2023-12-08T06:25:53.087Z,100832.50
2023-12-08T06:28:19.624Z,100831.59
2023-12-08T06:30:46.244Z,100829.03
2023-12-08T06:33:12.904Z,100827.19
2023-12-08T06:35:39.556Z,100828.91
2023-12-08T06:38:06.122Z,100838.47
2023-12-08T06:40:32.845Z,100831.59
2023-12-08T06:42:59.545Z,100836.72
2023-12-08T06:45:26.104Z,100842.75
2023-12-08T06:47:52.852Z,100829.72
2023-12-08T06:50:19.502Z,100837.41
2023-12-08T06:52:48.061Z,100830.34
2023-12-08T06:55:15.033Z,100826.84
2023-12-08T06:57:41.615Z,100823.34
2023-12-08T07:00:11.745Z,100836.53
2023-12-08T07:02:38.778Z,100818.91
2023-12-08T07:05:08.654Z,100825.81
2023-12-08T07:07:35.182Z,100826.66
2023-12-08T07:10:01.758Z,100827.44
2023-12-08T07:12:28.256Z,100844.00
2023-12-08T07:14:55.008Z,100839.59
2023-12-08T07:17:21.680Z,100829.13
2023-12-08T07:19:48.572Z,100828.28
2023-12-08T07:22:15.328Z,100826.47
2023-12-08T07:24:41.965Z,100831.59
2023-12-08T07:27:08.526Z,100834.19
2023-12-08T07:29:35.273Z,100834.13
2023-12-08T07:32:01.963Z,100845.47
2023-12-08T07:34:28.739Z,100854.13
2023-12-08T07:36:55.364Z,100848.88
2023-12-08T07:39:21.953Z,100849.66
2023-12-08T07:41:48.689Z,100845.31
2023-12-08T07:44:15.933Z,100850.44
2023-12-08T07:46:42.470Z,100850.44
2023-12-08T07:49:10.055Z,100850.44
2023-12-08T07:51:37.875Z,100852.00
2023-12-08T07:54:04.841Z,100849.31
2023-12-08T07:56:31.803Z,100850.16
2023-12-08T07:58:58.331Z,100852.75
2023-12-08T08:01:24.889Z,100857.00
2023-12-08T08:03:51.558Z,100856.16
2023-12-08T08:06:18.272Z,100858.72
2023-12-08T08:08:45.013Z,100866.44
2023-12-08T08:11:11.576Z,100867.34
2023-12-08T08:13:38.115Z,100863.91
2023-12-08T08:16:04.829Z,100877.78
2023-12-08T08:18:31.563Z,100883.72
2023-12-08T08:20:58.341Z,100893.31
2023-12-08T08:23:24.992Z,100888.91
2023-12-08T08:25:51.968Z,100881.91
2023-12-08T08:28:19.230Z,100882.69
2023-12-08T08:30:46.339Z,100885.31
2023-12-08T08:33:13.033Z,100890.34
2023-12-08T08:35:42.160Z,100885.91
2023-12-08T08:38:08.913Z,100883.28
2023-12-08T08:40:35.542Z,100878.91
2023-12-08T08:43:02.096Z,100882.31
2023-12-08T08:45:28.678Z,100884.00
2023-12-08T08:47:55.551Z,100882.19
2023-12-08T08:50:23.352Z,100886.50
2023-12-08T08:52:50.408Z,100889.00
2023-12-08T08:55:17.415Z,100895.03
2023-12-08T08:57:45.266Z,100887.16
2023-12-08T09:00:13.861Z,100887.00
2023-12-08T09:02:42.334Z,100880.88
2023-12-08T09:05:09.200Z,100899.03
2023-12-08T09:07:37.321Z,100891.09
2023-12-08T09:10:04.612Z,100907.56
2023-12-08T09:12:31.361Z,100907.47
2023-12-08T09:14:58.255Z,100909.19
2023-12-08T09:17:24.922Z,100909.03
2023-12-08T09:19:52.443Z,100904.72
2023-12-08T09:22:19.194Z,100906.16
2023-12-08T09:24:45.762Z,100904.31
2023-12-08T09:27:12.496Z,100905.06
2023-12-08T09:29:39.137Z,100916.34
2023-12-08T09:32:06.442Z,100917.06
2023-12-08T09:34:34.177Z,100898.63
2023-12-08T09:37:25.963Z,100905.53
2023-12-08T09:39:47.802Z,100906.31
2023-12-08T09:42:22.469Z,100912.25
2023-12-08T09:44:50.084Z,100907.78
2023-12-08T09:47:19.194Z,100908.56
2023-12-08T09:49:47.843Z,100919.00
2023-12-08T09:52:17.868Z,100913.69
2023-12-08T09:54:45.192Z,100910.88
2023-12-08T09:57:12.149Z,100906.47
2023-12-08T09:59:39.887Z,100910.72
2023-12-08T10:02:09.920Z,100914.06
2023-12-08T10:04:37.296Z,100902.59
2023-12-08T10:07:07.137Z,100909.41
2023-12-08T10:09:36.183Z,100902.31
2023-12-08T10:12:03.523Z,100908.34
2023-12-08T10:14:30.517Z,100907.34
2023-12-08T10:16:57.069Z,100917.78
2023-12-08T10:19:23.914Z,100919.63
2023-12-08T10:22:03.051Z,100920.28
2023-12-08T10:24:34.683Z,100920.13
2023-12-08T10:27:02.212Z,100929.63
2023-12-08T10:29:32.606Z,100911.03
2023-12-08T10:31:59.724Z,100910.91
2023-12-08T10:34:27.812Z,100909.84
2023-12-08T10:36:58.194Z,100920.19
2023-12-08T10:39:28.692Z,100912.97
2023-12-08T10:41:56.826Z,100908.56
2023-12-08T10:44:26.418Z,100923.03
2023-12-08T10:46:53.784Z,100921.19
2023-12-08T10:49:21.564Z,100919.41
2023-12-08T10:51:49.177Z,100919.13
2023-12-08T10:54:18.172Z,100911.19
2023-12-08T10:56:49.453Z,100913.69
2023-12-08T10:59:32.585Z,100918.00
2023-12-08T11:02:03.669Z,100910.91
2023-12-08T11:04:34.944Z,100918.56
2023-12-08T11:07:05.362Z,100914.09
2023-12-08T11:09:36.802Z,100918.28
2023-12-08T11:12:05.488Z,100913.72
2023-12-08T11:14:39.751Z,100910.03
2023-12-08T11:17:17.873Z,100907.13
2023-12-08T11:19:46.002Z,100897.22
2023-12-08T11:22:13.344Z,100897.75
2023-12-08T11:24:42.054Z,100897.56
2023-12-08T11:27:27.081Z,100895.69
2023-12-08T11:30:00.041Z,100899.09
2023-12-08T11:32:51.076Z,100907.59
2023-12-08T11:35:19.865Z,100907.44
2023-12-08T11:37:47.107Z,100905.44
2023-12-08T11:40:13.974Z,100905.28
2023-12-08T11:42:43.836Z,100913.88
2023-12-08T11:45:14.895Z,100911.84
2023-12-08T11:47:42.866Z,100909.16
2023-12-08T11:50:11.782Z,100907.31
2023-12-08T11:52:39.076Z,100905.44
2023-12-08T11:55:13.597Z,100913.97
2023-12-08T11:57:53.189Z,100916.38
2023-12-08T12:00:21.848Z,100911.88
2023-12-08T12:02:50.477Z,100920.44
2023-12-08T12:05:17.951Z,100922.16
2023-12-08T12:07:52.013Z,100910.63
2023-12-08T12:10:22.722Z,100916.59
2023-12-08T12:13:04.449Z,100911.94
2023-12-08T12:15:34.557Z,100918.13
2023-12-08T12:18:02.892Z,100919.50
2023-12-08T12:20:31.151Z,100922.75
2023-12-08T12:22:57.946Z,100921.69
2023-12-08T12:25:24.433Z,100926.69
2023-12-08T12:27:53.436Z,100930.78
2023-12-08T12:30:20.259Z,100929.69
2023-12-08T12:32:48.919Z,100932.16
2023-12-08T12:35:16.103Z,100928.25
2023-12-08T12:37:44.087Z,100933.06
2023-12-08T12:40:12.018Z,100930.31
2023-12-08T12:42:48.822Z,100931.84
2023-12-08T12:45:31.867Z,100929.00
2023-12-08T12:48:06.052Z,100926.97
2023-12-08T12:50:48.594Z,100930.22
2023-12-08T12:53:19.268Z,100928.16
2023-12-08T12:55:47.479Z,100940.06
2023-12-08T12:58:21.855Z,100938.19
2023-12-08T13:00:49.247Z,100948.41
2023-12-08T13:03:18.866Z,100944.72
2023-12-08T13:05:47.698Z,100942.03
2023-12-08T13:08:16.800Z,100950.78
2023-12-08T13:10:45.575Z,100947.16
2023-12-08T13:13:13.537Z,100953.06
2023-12-08T13:15:41.253Z,100955.63
2023-12-08T13:18:08.588Z,100956.41
2023-12-08T13:20:41.349Z,100959.88
2023-12-08T13:23:08.451Z,100954.53
2023-12-08T13:25:35.015Z,100950.09
2023-12-08T13:28:01.520Z,100954.38
2023-12-08T13:30:28.125Z,100966.59
2023-12-08T13:32:57.684Z,100972.63
2023-12-08T13:35:24.478Z,100971.53
2023-12-08T13:37:51.182Z,100973.22
2023-12-08T13:40:18.202Z,100979.06
2023-12-08T13:42:44.792Z,100977.09
2023-12-08T13:45:11.481Z,100975.31
2023-12-08T13:47:38.396Z,100985.69
2023-12-08T13:50:05.445Z,100986.38
2023-12-08T13:52:32.088Z,100986.19
2023-12-08T13:54:58.655Z,101000.13
2023-12-08T13:57:25.603Z,100998.69
2023-12-08T13:59:53.791Z,100989.84
2023-12-08T14:02:21.091Z,100998.53
2023-12-08T14:04:47.917Z,100997.41
2023-12-08T14:07:14.913Z,100995.63
2023-12-08T14:09:43.043Z,100987.03
2023-12-08T14:12:10.845Z,100993.81
2023-12-08T14:14:40.683Z,100999.69
2023-12-08T14:17:07.416Z,100994.16
2023-12-08T14:19:34.361Z,101005.22
2023-12-08T14:22:00.936Z,101015.22
2023-12-08T14:24:28.078Z,101010.97
2023-12-08T14:26:55.020Z,101006.63
2023-12-08T14:29:23.262Z,101004.88
2023-12-08T14:31:50.035Z,101008.44
2023-12-08T14:34:16.803Z,101014.66
2023-12-08T14:36:43.530Z,101009.53
2023-12-08T14:39:11.493Z,101020.84
2023-12-08T14:41:38.232Z,101024.09
2023-12-08T14:44:05.009Z,101016.19
2023-12-08T14:46:31.629Z,101017.78
2023-12-08T14:48:58.392Z,101017.59
2023-12-08T14:51:25.198Z,101014.88
2023-12-08T14:53:52.971Z,101012.31
2023-12-08T14:56:20.560Z,101033.06
2023-12-08T14:58:47.550Z,101031.19
2023-12-08T15:01:19.423Z,101034.78
2023-12-08T15:03:47.146Z,101028.41
2023-12-08T15:06:14.947Z,101019.53
2023-12-08T15:08:42.323Z,101033.22
2023-12-08T15:11:10.333Z,101031.59
2023-12-08T15:13:37.943Z,101032.44
2023-12-08T15:16:05.302Z,101035.00
2023-12-08T15:18:32.968Z,101035.09
2023-12-08T15:21:01.020Z,101035.09
2023-12-08T15:23:33.773Z,101043.59
2023-12-08T15:26:01.412Z,101040.00
2023-12-08T15:28:28.218Z,101047.78
2023-12-08T15:30:54.963Z,101042.50
2023-12-08T15:33:21.926Z,101036.03
2023-12-08T15:35:48.989Z,101045.00
2023-12-08T15:38:15.739Z,101055.38
2023-12-08T15:40:43.105Z,101058.84
2023-12-08T15:43:09.721Z,101062.09
2023-12-08T15:45:36.470Z,101060.50
2023-12-08T15:48:04.117Z,101057.25
2023-12-08T15:50:30.905Z,101057.72
2023-12-08T15:52:57.486Z,101063.91
2023-12-08T15:55:25.712Z,101069.09
2023-12-08T15:57:53.940Z,101079.75
2023-12-08T16:00:21.214Z,101078.81
2023-12-08T16:02:48.294Z,101084.94
2023-12-08T16:05:15.074Z,101078.06
2023-12-08T16:07:41.903Z,101081.28
2023-12-08T16:10:09.562Z,101083.00
2023-12-08T16:12:36.177Z,101078.06
2023-12-08T16:15:02.967Z,101082.31
2023-12-08T16:17:29.731Z,101092.78
2023-12-08T16:19:56.750Z,101095.22
2023-12-08T16:22:23.473Z,101090.81
2023-12-08T16:24:50.218Z,101094.19
2023-12-08T16:27:16.859Z,101098.44
2023-12-08T16:29:47.423Z,101098.44
2023-12-08T16:32:14.460Z,101098.44
2023-12-08T16:34:41.284Z,101101.19
2023-12-08T16:37:07.977Z,101109.97
2023-12-08T16:39:35.151Z,101097.44
2023-12-08T16:42:01.986Z,101107.13
2023-12-08T16:44:28.688Z,101100.16
2023-12-08T16:46:55.405Z,101098.28
2023-12-08T16:49:22.414Z,101117.34
2023-12-08T16:51:51.264Z,101113.69
2023-12-08T16:54:18.777Z,101101.34
2023-12-08T16:56:45.773Z,101101.41
2023-12-08T16:59:12.411Z,101103.91
2023-12-08T17:01:39.161Z,101105.88
2023-12-08T17:04:07.690Z,101106.69
2023-12-08T17:06:34.629Z,101096.22
2023-12-08T17:09:01.560Z,101103.22
2023-12-08T17:11:28.169Z,101097.09
2023-12-08T17:13:55.122Z,101096.22
2023-12-08T17:16:22.754Z,101098.09
2023-12-08T17:18:49.675Z,101106.91
2023-12-08T17:21:17.250Z,101104.91
2023-12-08T17:23:44.237Z,101110.09
2023-12-08T17:26:13.121Z,101108.31
2023-12-08T17:28:41.641Z,101102.09
2023-12-08T17:31:08.183Z,101107.47
2023-12-08T17:33:34.864Z,101104.06
2023-12-08T17:36:01.857Z,101104.00
2023-12-08T17:38:28.443Z,101104.91
2023-12-08T17:40:54.963Z,101109.19
2023-12-08T17:43:21.898Z,101111.06
2023-12-08T17:45:48.443Z,101118.03
2023-12-08T17:48:15.176Z,101113.69
2023-12-08T17:50:41.861Z,101109.19
2023-12-08T17:53:08.476Z,101108.50
2023-12-08T17:55:35.044Z,101115.59
2023-12-08T17:58:01.588Z,101109.25
2023-12-08T18:00:28.192Z,101108.50
2023-12-08T18:02:56.653Z,101102.63
2023-12-08T18:05:24.090Z,101105.25
2023-12-08T18:07:50.725Z,101110.81
2023-12-08T18:10:17.381Z,101110.72
2023-12-08T18:12:43.980Z,101110.53
2023-12-08T18:15:11.220Z,101115.75
2023-12-08T18:17:38.780Z,101126.38
2023-12-08T18:20:06.406Z,101124.69
2023-12-08T18:22:34.806Z,101125.44
2023-12-08T18:25:01.391Z,101123.75
2023-12-08T18:27:39.696Z,101128.19
2023-12-08T18:30:15.488Z,101119.41
2023-12-08T18:32:43.083Z,101126.38
2023-12-08T18:35:09.847Z,101133.38
2023-12-08T18:37:36.404Z,101127.13
2023-12-08T18:40:04.501Z,101133.19
2023-12-08T18:42:31.418Z,101124.50
2023-12-08T18:44:58.467Z,101126.97
2023-12-08T18:47:25.083Z,101133.03
2023-12-08T18:49:51.723Z,101124.16
2023-12-08T18:52:18.328Z,101132.69
2023-12-08T18:54:44.952Z,101133.53
2023-12-08T18:57:11.741Z,101128.25
2023-12-08T18:59:39.462Z,101121.94
2023-12-08T19:02:06.718Z,101125.69
2023-12-08T19:04:34.901Z,101137.97
2023-12-08T19:07:05.162Z,101137.78
2023-12-08T19:09:31.968Z,101136.94
2023-12-08T19:12:00.486Z,101136.09
2023-12-08T19:14:28.693Z,101144.00
2023-12-08T19:16:55.304Z,101136.84
2023-12-08T19:19:22.285Z,101143.25
2023-12-08T19:21:48.930Z,101150.22
2023-12-08T19:24:15.528Z,101155.50
2023-12-08T19:26:42.119Z,101139.84
2023-12-08T19:29:08.718Z,101138.88
2023-12-08T19:31:35.836Z,101148.69
2023-12-08T19:34:03.981Z,101154.16
2023-12-08T19:36:30.680Z,101153.13
2023-12-08T19:39:00.940Z,101148.69
2023-12-08T19:41:28.183Z,101151.31
2023-12-08T19:43:55.852Z,101158.13
2023-12-08T19:46:22.616Z,101151.25
2023-12-08T19:48:49.457Z,101149.63
2023-12-08T19:51:16.209Z,101147.25
2023-12-08T19:53:42.966Z,101150.91
2023-12-08T19:56:09.984Z,101150.91
2023-12-08T19:58:36.576Z,101163.25
2023-12-08T20:01:03.322Z,101150.13
2023-12-08T20:03:30.040Z,101153.66
2023-12-08T20:05:56.884Z,101151.84
2023-12-08T20:08:23.507Z,101158.41
2023-12-08T20:10:50.105Z,101158.41
2023-12-08T20:13:16.933Z,101158.59
2023-12-08T20:15:45.685Z,101158.50
2023-12-08T20:18:12.763Z,101160.38
2023-12-08T20:20:39.833Z,101166.59
2023-12-08T20:23:06.794Z,101157.25
2023-12-08T20:25:33.384Z,101158.16
2023-12-08T20:28:01.166Z,101159.25
2023-12-08T20:30:27.835Z,101165.38
2023-12-08T20:32:56.996Z,101166.25
2023-12-08T20:35:26.421Z,101163.69
2023-12-08T20:37:52.840Z,101170.78
2023-12-08T20:40:19.582Z,101158.56
2023-12-08T20:42:46.159Z,101168.97
2023-12-08T20:45:12.857Z,101172.66
2023-12-08T20:47:39.555Z,101164.72
2023-12-08T20:50:06.567Z,101169.25
2023-12-08T20:52:33.124Z,101163.78
2023-12-08T20:54:59.816Z,101170.84
2023-12-08T20:57:27.088Z,101175.09
2023-12-08T20:59:53.878Z,101170.94
2023-12-08T21:02:22.177Z,101175.44
2023-12-08T21:04:49.458Z,101172.03
2023-12-08T21:07:16.240Z,101176.47
2023-12-08T21:09:42.963Z,101177.16
2023-12-08T21:12:09.597Z,101174.59
2023-12-08T21:14:36.142Z,101181.75
2023-12-08T21:17:03.393Z,101185.16
2023-12-08T21:19:31.639Z,101182.31
2023-12-08T21:22:02.241Z,101175.44
2023-12-08T21:24:29.122Z,101172.72
2023-12-08T21:26:55.931Z,101172.03
2023-12-08T21:29:22.451Z,101175.78
2023-12-08T21:31:51.490Z,101159.44
2023-12-08T21:34:18.153Z,101169.13
2023-12-08T21:36:45.079Z,101169.97
2023-12-08T21:39:11.710Z,101176.28
2023-12-08T21:41:38.382Z,101178.16
2023-12-08T21:44:05.200Z,101175.66
2023-12-08T21:46:31.874Z,101177.53
2023-12-08T21:48:59.615Z,101166.25
2023-12-08T21:51:26.870Z,101167.94
2023-12-08T21:53:54.348Z,101174.88
2023-12-08T21:56:29.116Z,101180.88
2023-12-08T21:58:57.773Z,101179.25
2023-12-08T22:01:24.392Z,101178.31
2023-12-08T22:03:51.125Z,101173.91
2023-12-08T22:06:17.905Z,101178.41
2023-12-08T22:08:44.444Z,101171.50
2023-12-08T22:11:11.021Z,101188.09
2023-12-08T22:13:37.540Z,101187.09
2023-12-08T22:16:04.389Z,101181.13
2023-12-08T22:18:31.125Z,101181.97
2023-12-08T22:20:58.184Z,101185.53
2023-12-08T22:23:24.901Z,101194.22
2023-12-08T22:25:51.521Z,101186.47
2023-12-08T22:28:21.621Z,101189.88
2023-12-08T22:30:48.180Z,101182.91
2023-12-08T22:33:15.557Z,101192.69
2023-12-08T22:35:42.714Z,101192.69
2023-12-08T22:38:11.000Z,101188.34
2023-12-08T22:40:37.572Z,101196.34
2023-12-08T22:43:04.156Z,101188.34
2023-12-08T22:45:30.746Z,101199.00
2023-12-08T22:47:57.442Z,101196.34
2023-12-08T22:50:29.170Z,101192.69
2023-12-08T22:52:59.167Z,101190.91
2023-12-08T22:55:25.842Z,101188.34
2023-12-08T22:57:52.384Z,101201.44
2023-12-08T23:00:25.392Z,101195.06
2023-12-08T23:02:53.551Z,101203.00
2023-12-08T23:05:21.061Z,101204.53
2023-12-08T23:07:48.224Z,101214.31
2023-12-08T23:10:15.684Z,101209.81
2023-12-08T23:12:42.661Z,101214.91
2023-12-08T23:15:09.774Z,101214.91
2023-12-08T23:17:37.194Z,101215.78
2023-12-08T23:20:04.542Z,101215.84
2023-12-08T23:22:31.101Z,101219.41
2023-12-08T23:24:57.649Z,101227.00
2023-12-08T23:27:24.370Z,101222.59
2023-12-08T23:29:51.171Z,101219.25
2023-12-08T23:32:17.789Z,101224.63
2023-12-08T23:34:44.531Z,101225.78
2023-12-08T23:37:11.234Z,101225.63
2023-12-08T23:39:39.471Z,101225.63
2023-12-08T23:42:06.855Z,101233.63
2023-12-08T23:44:33.695Z,101231.06
2023-12-08T23:47:00.714Z,101227.66
2023-12-08T23:49:27.540Z,101234.81
2023-12-08T23:51:54.196Z,101230.53
2023-12-08T23:54:20.833Z,101227.06
2023-12-08T23:56:47.459Z,101224.41
2023-12-08T23:59:14.225Z,101231.41
